sensor_id;sensor_type;location;lat;lon;timestamp;P1;durP1;ratioP1;P2;durP2;ratioP2
52724;SDS011;38621;52.830;6.914;2022-08-19T00:01:39;3.72;;;2.50;;
52724;SDS011;38621;52.830;6.914;2022-08-19T00:04:08;3.60;;;2.72;;
52724;SDS011;38621;52.830;6.914;2022-08-19T00:06:37;3.25;;;2.53;;
52724;SDS011;38621;52.830;6.914;2022-08-19T00:09:07;3.30;;;2.40;;
52724;SDS011;38621;52.830;6.914;2022-08-19T00:11:36;2.40;;;1.60;;
52724;SDS011;38621;52.830;6.914;2022-08-19T00:14:02;2.30;;;1.60;;
52724;SDS011;38621;52.830;6.914;2022-08-19T00:16:29;2.60;;;1.98;;
52724;SDS011;38621;52.830;6.914;2022-08-19T00:18:55;4.47;;;2.70;;
52724;SDS011;38621;52.830;6.914;2022-08-19T00:21:22;6.45;;;3.80;;
52724;SDS011;38621;52.830;6.914;2022-08-19T00:23:49;5.28;;;3.92;;
52724;SDS011;38621;52.830;6.914;2022-08-19T00:26:15;5.20;;;4.00;;
52724;SDS011;38621;52.830;6.914;2022-08-19T00:28:41;4.93;;;3.78;;
52724;SDS011;38621;52.830;6.914;2022-08-19T00:31:07;5.60;;;3.00;;
52724;SDS011;38621;52.830;6.914;2022-08-19T00:33:33;4.60;;;3.22;;
52724;SDS011;38621;52.830;6.914;2022-08-19T00:36:00;4.13;;;3.10;;
52724;SDS011;38621;52.830;6.914;2022-08-19T00:38:29;4.22;;;3.30;;
52724;SDS011;38621;52.830;6.914;2022-08-19T00:40:55;4.05;;;3.05;;
52724;SDS011;38621;52.830;6.914;2022-08-19T00:43:22;6.10;;;4.00;;
52724;SDS011;38621;52.830;6.914;2022-08-19T00:45:49;4.63;;;3.70;;
52724;SDS011;38621;52.830;6.914;2022-08-19T00:48:15;5.35;;;4.25;;
52724;SDS011;38621;52.830;6.914;2022-08-19T00:50:42;6.30;;;4.90;;
52724;SDS011;38621;52.830;6.914;2022-08-19T00:53:09;6.50;;;4.55;;
52724;SDS011;38621;52.830;6.914;2022-08-19T00:55:37;7.63;;;5.05;;
52724;SDS011;38621;52.830;6.914;2022-08-19T00:58:08;5.75;;;5.03;;
52724;SDS011;38621;52.830;6.914;2022-08-19T01:00:37;6.00;;;4.97;;
52724;SDS011;38621;52.830;6.914;2022-08-19T01:03:04;5.55;;;4.50;;
52724;SDS011;38621;52.830;6.914;2022-08-19T01:05:32;6.00;;;4.20;;
52724;SDS011;38621;52.830;6.914;2022-08-19T01:08:00;5.88;;;4.72;;
52724;SDS011;38621;52.830;6.914;2022-08-19T01:10:30;6.18;;;4.88;;
52724;SDS011;38621;52.830;6.914;2022-08-19T01:12:58;5.40;;;4.28;;
52724;SDS011;38621;52.830;6.914;2022-08-19T01:15:27;5.43;;;4.45;;
52724;SDS011;38621;52.830;6.914;2022-08-19T01:17:57;6.20;;;4.57;;
52724;SDS011;38621;52.830;6.914;2022-08-19T01:20:26;7.13;;;4.72;;
52724;SDS011;38621;52.830;6.914;2022-08-19T01:22:53;6.00;;;4.78;;
52724;SDS011;38621;52.830;6.914;2022-08-19T01:25:24;5.80;;;4.60;;
52724;SDS011;38621;52.830;6.914;2022-08-19T01:27:54;6.13;;;4.88;;
52724;SDS011;38621;52.830;6.914;2022-08-19T01:30:30;6.03;;;4.53;;
52724;SDS011;38621;52.830;6.914;2022-08-19T01:32:57;6.07;;;4.40;;
52724;SDS011;38621;52.830;6.914;2022-08-19T01:35:28;6.55;;;3.90;;
52724;SDS011;38621;52.830;6.914;2022-08-19T01:37:57;5.53;;;4.03;;
52724;SDS011;38621;52.830;6.914;2022-08-19T01:40:28;6.55;;;3.38;;
52724;SDS011;38621;52.830;6.914;2022-08-19T01:42:56;6.63;;;3.03;;
52724;SDS011;38621;52.830;6.914;2022-08-19T01:45:23;3.70;;;2.67;;
52724;SDS011;38621;52.830;6.914;2022-08-19T01:47:51;3.83;;;2.78;;
52724;SDS011;38621;52.830;6.914;2022-08-19T01:50:18;3.70;;;2.72;;
52724;SDS011;38621;52.830;6.914;2022-08-19T01:52:43;4.28;;;3.13;;
52724;SDS011;38621;52.830;6.914;2022-08-19T01:55:14;4.10;;;2.92;;
52724;SDS011;38621;52.830;6.914;2022-08-19T01:57:42;4.32;;;3.40;;
52724;SDS011;38621;52.830;6.914;2022-08-19T02:00:13;4.65;;;3.40;;
52724;SDS011;38621;52.830;6.914;2022-08-19T02:02:41;5.07;;;3.40;;
52724;SDS011;38621;52.830;6.914;2022-08-19T02:05:07;5.45;;;4.40;;
52724;SDS011;38621;52.830;6.914;2022-08-19T02:07:34;6.60;;;4.18;;
52724;SDS011;38621;52.830;6.914;2022-08-19T02:10:02;6.82;;;4.60;;
52724;SDS011;38621;52.830;6.914;2022-08-19T02:12:29;6.45;;;4.38;;
52724;SDS011;38621;52.830;6.914;2022-08-19T02:14:55;6.13;;;4.25;;
52724;SDS011;38621;52.830;6.914;2022-08-19T02:17:20;5.85;;;3.60;;
52724;SDS011;38621;52.830;6.914;2022-08-19T02:19:46;4.63;;;3.53;;
52724;SDS011;38621;52.830;6.914;2022-08-19T02:22:12;3.88;;;2.63;;
52724;SDS011;38621;52.830;6.914;2022-08-19T02:24:38;5.05;;;3.55;;
52724;SDS011;38621;52.830;6.914;2022-08-19T02:27:04;5.68;;;3.60;;
52724;SDS011;38621;52.830;6.914;2022-08-19T02:29:30;5.28;;;3.85;;
52724;SDS011;38621;52.830;6.914;2022-08-19T02:31:56;5.95;;;4.70;;
52724;SDS011;38621;52.830;6.914;2022-08-19T02:34:22;6.88;;;4.03;;
52724;SDS011;38621;52.830;6.914;2022-08-19T02:36:50;7.10;;;5.43;;
52724;SDS011;38621;52.830;6.914;2022-08-19T02:39:16;5.35;;;3.83;;
52724;SDS011;38621;52.830;6.914;2022-08-19T02:41:42;20.40;;;4.38;;
52724;SDS011;38621;52.830;6.914;2022-08-19T02:44:08;31.95;;;5.93;;
52724;SDS011;38621;52.830;6.914;2022-08-19T02:46:33;24.95;;;4.68;;
52724;SDS011;38621;52.830;6.914;2022-08-19T02:49:04;75.90;;;6.50;;
52724;SDS011;38621;52.830;6.914;2022-08-19T02:51:33;85.20;;;7.75;;
52724;SDS011;38621;52.830;6.914;2022-08-19T02:54:06;20.27;;;5.07;;
52724;SDS011;38621;52.830;6.914;2022-08-19T02:56:37;7.03;;;4.32;;
52724;SDS011;38621;52.830;6.914;2022-08-19T02:59:04;12.75;;;4.82;;
52724;SDS011;38621;52.830;6.914;2022-08-19T03:01:36;6.63;;;4.00;;
52724;SDS011;38621;52.830;6.914;2022-08-19T03:04:05;32.30;;;5.85;;
52724;SDS011;38621;52.830;6.914;2022-08-19T03:06:32;41.53;;;7.18;;
52724;SDS011;38621;52.830;6.914;2022-08-19T03:09:01;49.30;;;6.70;;
52724;SDS011;38621;52.830;6.914;2022-08-19T03:11:28;29.17;;;5.95;;
52724;SDS011;38621;52.830;6.914;2022-08-19T03:13:55;23.92;;;6.03;;
52724;SDS011;38621;52.830;6.914;2022-08-19T03:16:22;17.98;;;4.15;;
52724;SDS011;38621;52.830;6.914;2022-08-19T03:18:49;11.55;;;4.15;;
52724;SDS011;38621;52.830;6.914;2022-08-19T03:21:18;17.17;;;2.70;;
52724;SDS011;38621;52.830;6.914;2022-08-19T03:23:47;4.07;;;2.30;;
52724;SDS011;38621;52.830;6.914;2022-08-19T03:26:13;22.02;;;4.93;;
52724;SDS011;38621;52.830;6.914;2022-08-19T03:28:43;26.30;;;4.70;;
52724;SDS011;38621;52.830;6.914;2022-08-19T03:31:11;12.77;;;4.50;;
52724;SDS011;38621;52.830;6.914;2022-08-19T03:33:39;4.72;;;2.80;;
52724;SDS011;38621;52.830;6.914;2022-08-19T03:38:36;4.72;;;3.08;;
52724;SDS011;38621;52.830;6.914;2022-08-19T03:41:05;4.30;;;2.70;;
52724;SDS011;38621;52.830;6.914;2022-08-19T03:43:36;4.45;;;2.80;;
52724;SDS011;38621;52.830;6.914;2022-08-19T03:46:04;5.10;;;3.25;;
52724;SDS011;38621;52.830;6.914;2022-08-19T03:48:41;4.70;;;2.90;;
52724;SDS011;38621;52.830;6.914;2022-08-19T03:51:14;4.85;;;3.85;;
52724;SDS011;38621;52.830;6.914;2022-08-19T03:53:43;5.55;;;3.97;;
52724;SDS011;38621;52.830;6.914;2022-08-19T03:56:09;4.10;;;3.30;;
52724;SDS011;38621;52.830;6.914;2022-08-19T03:58:35;6.95;;;3.83;;
52724;SDS011;38621;52.830;6.914;2022-08-19T04:01:02;6.15;;;3.88;;
52724;SDS011;38621;52.830;6.914;2022-08-19T04:03:40;5.95;;;4.60;;
52724;SDS011;38621;52.830;6.914;2022-08-19T04:08:49;19.48;;;5.78;;
52724;SDS011;38621;52.830;6.914;2022-08-19T04:11:23;49.83;;;6.40;;
52724;SDS011;38621;52.830;6.914;2022-08-19T04:13:51;6.20;;;5.00;;
52724;SDS011;38621;52.830;6.914;2022-08-19T04:16:18;6.78;;;4.45;;
52724;SDS011;38621;52.830;6.914;2022-08-19T04:18:45;7.63;;;4.90;;
52724;SDS011;38621;52.830;6.914;2022-08-19T04:21:20;5.22;;;3.55;;
52724;SDS011;38621;52.830;6.914;2022-08-19T04:23:48;4.82;;;3.20;;
52724;SDS011;38621;52.830;6.914;2022-08-19T04:26:15;6.53;;;3.35;;
52724;SDS011;38621;52.830;6.914;2022-08-19T04:28:47;6.60;;;4.00;;
52724;SDS011;38621;52.830;6.914;2022-08-19T04:31:16;7.00;;;4.70;;
52724;SDS011;38621;52.830;6.914;2022-08-19T04:33:45;5.50;;;4.18;;
52724;SDS011;38621;52.830;6.914;2022-08-19T04:36:18;8.38;;;4.78;;
52724;SDS011;38621;52.830;6.914;2022-08-19T04:38:47;9.23;;;5.28;;
52724;SDS011;38621;52.830;6.914;2022-08-19T04:41:14;19.58;;;5.93;;
52724;SDS011;38621;52.830;6.914;2022-08-19T04:43:58;28.73;;;6.40;;
52724;SDS011;38621;52.830;6.914;2022-08-19T04:46:24;23.05;;;6.55;;
52724;SDS011;38621;52.830;6.914;2022-08-19T04:48:50;10.98;;;5.10;;
52724;SDS011;38621;52.830;6.914;2022-08-19T04:51:15;6.18;;;4.05;;
52724;SDS011;38621;52.830;6.914;2022-08-19T04:53:41;6.50;;;4.72;;
52724;SDS011;38621;52.830;6.914;2022-08-19T04:56:11;7.30;;;4.47;;
52724;SDS011;38621;52.830;6.914;2022-08-19T04:58:40;5.68;;;4.25;;
52724;SDS011;38621;52.830;6.914;2022-08-19T05:01:08;6.55;;;4.95;;
52724;SDS011;38621;52.830;6.914;2022-08-19T05:03:36;8.57;;;5.45;;
52724;SDS011;38621;52.830;6.914;2022-08-19T05:06:10;8.18;;;5.93;;
52724;SDS011;38621;52.830;6.914;2022-08-19T05:08:38;8.40;;;6.13;;
52724;SDS011;38621;52.830;6.914;2022-08-19T05:13:42;10.68;;;6.90;;
52724;SDS011;38621;52.830;6.914;2022-08-19T05:16:09;10.38;;;6.60;;
52724;SDS011;38621;52.830;6.914;2022-08-19T05:18:37;9.82;;;6.93;;
52724;SDS011;38621;52.830;6.914;2022-08-19T05:21:22;9.43;;;6.22;;
52724;SDS011;38621;52.830;6.914;2022-08-19T05:24:06;13.27;;;6.90;;
52724;SDS011;38621;52.830;6.914;2022-08-19T05:26:36;10.02;;;7.10;;
52724;SDS011;38621;52.830;6.914;2022-08-19T05:29:02;9.32;;;6.50;;
52724;SDS011;38621;52.830;6.914;2022-08-19T05:31:29;9.88;;;6.75;;
52724;SDS011;38621;52.830;6.914;2022-08-19T05:33:55;9.75;;;6.75;;
52724;SDS011;38621;52.830;6.914;2022-08-19T05:36:24;10.50;;;6.65;;
52724;SDS011;38621;52.830;6.914;2022-08-19T05:38:50;11.13;;;7.82;;
52724;SDS011;38621;52.830;6.914;2022-08-19T05:41:17;11.13;;;7.47;;
52724;SDS011;38621;52.830;6.914;2022-08-19T05:43:43;12.18;;;7.90;;
52724;SDS011;38621;52.830;6.914;2022-08-19T05:46:15;12.60;;;7.97;;
52724;SDS011;38621;52.830;6.914;2022-08-19T05:48:44;11.80;;;7.75;;
52724;SDS011;38621;52.830;6.914;2022-08-19T05:51:10;10.93;;;7.75;;
52724;SDS011;38621;52.830;6.914;2022-08-19T05:53:36;10.52;;;7.35;;
52724;SDS011;38621;52.830;6.914;2022-08-19T05:56:06;12.43;;;7.50;;
52724;SDS011;38621;52.830;6.914;2022-08-19T05:58:33;12.43;;;7.47;;
52724;SDS011;38621;52.830;6.914;2022-08-19T06:01:00;12.82;;;7.88;;
52724;SDS011;38621;52.830;6.914;2022-08-19T06:03:30;12.50;;;7.97;;
52724;SDS011;38621;52.830;6.914;2022-08-19T06:05:58;11.40;;;7.93;;
52724;SDS011;38621;52.830;6.914;2022-08-19T06:08:25;9.90;;;7.18;;
52724;SDS011;38621;52.830;6.914;2022-08-19T06:10:51;9.73;;;6.75;;
52724;SDS011;38621;52.830;6.914;2022-08-19T06:13:17;9.02;;;6.47;;
52724;SDS011;38621;52.830;6.914;2022-08-19T06:15:44;11.25;;;7.22;;
52724;SDS011;38621;52.830;6.914;2022-08-19T06:18:12;10.80;;;6.88;;
52724;SDS011;38621;52.830;6.914;2022-08-19T06:20:39;10.65;;;7.53;;
52724;SDS011;38621;52.830;6.914;2022-08-19T06:23:05;12.60;;;7.70;;
52724;SDS011;38621;52.830;6.914;2022-08-19T06:25:31;9.80;;;7.20;;
52724;SDS011;38621;52.830;6.914;2022-08-19T06:27:57;11.63;;;7.78;;
52724;SDS011;38621;52.830;6.914;2022-08-19T06:30:23;10.43;;;7.20;;
52724;SDS011;38621;52.830;6.914;2022-08-19T06:32:48;11.52;;;7.55;;
52724;SDS011;38621;52.830;6.914;2022-08-19T06:35:15;11.80;;;7.50;;
52724;SDS011;38621;52.830;6.914;2022-08-19T06:37:41;9.85;;;7.28;;
52724;SDS011;38621;52.830;6.914;2022-08-19T06:40:08;10.48;;;7.40;;
52724;SDS011;38621;52.830;6.914;2022-08-19T06:42:36;10.57;;;7.22;;
52724;SDS011;38621;52.830;6.914;2022-08-19T06:45:03;9.43;;;7.22;;
52724;SDS011;38621;52.830;6.914;2022-08-19T06:47:30;9.57;;;6.80;;
52724;SDS011;38621;52.830;6.914;2022-08-19T06:49:57;8.82;;;6.72;;
52724;SDS011;38621;52.830;6.914;2022-08-19T06:52:32;8.68;;;6.53;;
52724;SDS011;38621;52.830;6.914;2022-08-19T06:54:59;9.10;;;6.55;;
52724;SDS011;38621;52.830;6.914;2022-08-19T06:57:26;8.15;;;6.38;;
52724;SDS011;38621;52.830;6.914;2022-08-19T06:59:57;9.15;;;6.35;;
52724;SDS011;38621;52.830;6.914;2022-08-19T07:02:25;9.90;;;6.47;;
52724;SDS011;38621;52.830;6.914;2022-08-19T07:04:51;9.13;;;7.07;;
52724;SDS011;38621;52.830;6.914;2022-08-19T07:07:17;9.75;;;6.85;;
52724;SDS011;38621;52.830;6.914;2022-08-19T07:09:44;9.20;;;7.63;;
52724;SDS011;38621;52.830;6.914;2022-08-19T07:12:11;9.82;;;7.22;;
52724;SDS011;38621;52.830;6.914;2022-08-19T07:14:39;10.48;;;7.70;;
52724;SDS011;38621;52.830;6.914;2022-08-19T07:17:07;8.45;;;7.10;;
52724;SDS011;38621;52.830;6.914;2022-08-19T07:19:34;9.98;;;7.00;;
52724;SDS011;38621;52.830;6.914;2022-08-19T07:22:03;10.90;;;6.75;;
52724;SDS011;38621;52.830;6.914;2022-08-19T07:24:31;10.00;;;6.72;;
52724;SDS011;38621;52.830;6.914;2022-08-19T07:26:58;8.40;;;6.63;;
52724;SDS011;38621;52.830;6.914;2022-08-19T07:29:27;11.05;;;7.13;;
52724;SDS011;38621;52.830;6.914;2022-08-19T07:31:54;8.25;;;6.78;;
52724;SDS011;38621;52.830;6.914;2022-08-19T07:34:22;9.25;;;6.60;;
52724;SDS011;38621;52.830;6.914;2022-08-19T07:36:48;8.93;;;6.78;;
52724;SDS011;38621;52.830;6.914;2022-08-19T07:39:18;7.63;;;6.10;;
52724;SDS011;38621;52.830;6.914;2022-08-19T07:41:52;7.30;;;6.47;;
52724;SDS011;38621;52.830;6.914;2022-08-19T07:44:19;8.90;;;7.00;;
52724;SDS011;38621;52.830;6.914;2022-08-19T07:46:47;9.50;;;6.65;;
52724;SDS011;38621;52.830;6.914;2022-08-19T07:49:17;9.30;;;7.00;;
52724;SDS011;38621;52.830;6.914;2022-08-19T07:51:51;8.98;;;6.95;;
52724;SDS011;38621;52.830;6.914;2022-08-19T07:54:19;9.27;;;6.90;;
52724;SDS011;38621;52.830;6.914;2022-08-19T07:56:46;10.73;;;7.28;;
52724;SDS011;38621;52.830;6.914;2022-08-19T07:59:12;8.60;;;7.07;;
52724;SDS011;38621;52.830;6.914;2022-08-19T08:01:39;11.00;;;7.15;;
52724;SDS011;38621;52.830;6.914;2022-08-19T08:04:05;9.23;;;6.53;;
52724;SDS011;38621;52.830;6.914;2022-08-19T08:06:50;8.50;;;6.77;;
52724;SDS011;38621;52.830;6.914;2022-08-19T08:09:37;10.57;;;6.63;;
52724;SDS011;38621;52.830;6.914;2022-08-19T08:12:09;8.70;;;6.30;;
52724;SDS011;38621;52.830;6.914;2022-08-19T08:14:44;9.55;;;6.63;;
52724;SDS011;38621;52.830;6.914;2022-08-19T08:17:12;8.02;;;6.65;;
52724;SDS011;38621;52.830;6.914;2022-08-19T08:19:40;7.78;;;6.45;;
52724;SDS011;38621;52.830;6.914;2022-08-19T08:22:09;8.88;;;6.65;;
52724;SDS011;38621;52.830;6.914;2022-08-19T08:25:06;9.55;;;6.95;;
52724;SDS011;38621;52.830;6.914;2022-08-19T08:27:41;9.20;;;7.45;;
52724;SDS011;38621;52.830;6.914;2022-08-19T08:30:09;10.48;;;6.65;;
52724;SDS011;38621;52.830;6.914;2022-08-19T08:32:37;9.38;;;6.78;;
52724;SDS011;38621;52.830;6.914;2022-08-19T08:35:05;9.07;;;7.13;;
52724;SDS011;38621;52.830;6.914;2022-08-19T08:37:34;8.43;;;7.25;;
52724;SDS011;38621;52.830;6.914;2022-08-19T08:40:05;8.95;;;6.78;;
52724;SDS011;38621;52.830;6.914;2022-08-19T08:42:39;9.65;;;7.07;;
52724;SDS011;38621;52.830;6.914;2022-08-19T08:45:16;8.20;;;6.55;;
52724;SDS011;38621;52.830;6.914;2022-08-19T08:47:44;8.02;;;7.22;;
52724;SDS011;38621;52.830;6.914;2022-08-19T08:50:20;10.18;;;6.60;;
52724;SDS011;38621;52.830;6.914;2022-08-19T08:52:51;9.52;;;7.00;;
52724;SDS011;38621;52.830;6.914;2022-08-19T08:55:22;6.85;;;6.00;;
52724;SDS011;38621;52.830;6.914;2022-08-19T08:57:55;7.18;;;6.28;;
52724;SDS011;38621;52.830;6.914;2022-08-19T09:00:33;8.18;;;6.07;;
52724;SDS011;38621;52.830;6.914;2022-08-19T09:03:06;7.78;;;5.70;;
52724;SDS011;38621;52.830;6.914;2022-08-19T09:05:45;6.95;;;5.93;;
52724;SDS011;38621;52.830;6.914;2022-08-19T09:08:19;5.68;;;5.00;;
52724;SDS011;38621;52.830;6.914;2022-08-19T09:11:03;7.30;;;5.60;;
52724;SDS011;38621;52.830;6.914;2022-08-19T09:16:10;9.55;;;6.40;;
52724;SDS011;38621;52.830;6.914;2022-08-19T09:18:41;8.07;;;6.43;;
52724;SDS011;38621;52.830;6.914;2022-08-19T09:21:09;7.90;;;6.78;;
52724;SDS011;38621;52.830;6.914;2022-08-19T09:23:36;8.18;;;7.03;;
52724;SDS011;38621;52.830;6.914;2022-08-19T09:26:06;7.72;;;6.65;;
52724;SDS011;38621;52.830;6.914;2022-08-19T09:28:33;8.50;;;6.60;;
52724;SDS011;38621;52.830;6.914;2022-08-19T09:30:59;7.65;;;6.80;;
52724;SDS011;38621;52.830;6.914;2022-08-19T09:33:25;8.18;;;7.32;;
52724;SDS011;38621;52.830;6.914;2022-08-19T09:36:00;7.55;;;6.70;;
52724;SDS011;38621;52.830;6.914;2022-08-19T09:38:34;9.20;;;7.05;;
52724;SDS011;38621;52.830;6.914;2022-08-19T09:41:02;7.70;;;6.70;;
52724;SDS011;38621;52.830;6.914;2022-08-19T09:43:39;8.25;;;7.30;;
52724;SDS011;38621;52.830;6.914;2022-08-19T09:46:06;9.00;;;6.40;;
52724;SDS011;38621;52.830;6.914;2022-08-19T09:48:37;5.70;;;4.07;;
52724;SDS011;38621;52.830;6.914;2022-08-19T09:53:40;5.90;;;4.50;;
52724;SDS011;38621;52.830;6.914;2022-08-19T09:56:08;6.10;;;5.35;;
52724;SDS011;38621;52.830;6.914;2022-08-19T09:58:35;6.88;;;5.50;;
52724;SDS011;38621;52.830;6.914;2022-08-19T10:01:01;7.28;;;5.63;;
52724;SDS011;38621;52.830;6.914;2022-08-19T10:03:30;8.95;;;5.32;;
52724;SDS011;38621;52.830;6.914;2022-08-19T10:05:57;5.50;;;4.40;;
52724;SDS011;38621;52.830;6.914;2022-08-19T10:08:26;4.00;;;3.50;;
52724;SDS011;38621;52.830;6.914;2022-08-19T10:10:54;5.05;;;4.15;;
52724;SDS011;38621;52.830;6.914;2022-08-19T10:13:23;5.68;;;4.60;;
52724;SDS011;38621;52.830;6.914;2022-08-19T10:15:51;4.28;;;3.60;;
52724;SDS011;38621;52.830;6.914;2022-08-19T10:18:19;5.47;;;4.35;;
52724;SDS011;38621;52.830;6.914;2022-08-19T10:20:46;5.60;;;4.13;;
52724;SDS011;38621;52.830;6.914;2022-08-19T10:23:13;5.68;;;4.50;;
52724;SDS011;38621;52.830;6.914;2022-08-19T10:25:40;5.80;;;4.95;;
52724;SDS011;38621;52.830;6.914;2022-08-19T10:28:07;5.57;;;4.70;;
52724;SDS011;38621;52.830;6.914;2022-08-19T10:30:33;6.00;;;4.80;;
52724;SDS011;38621;52.830;6.914;2022-08-19T10:33:00;5.45;;;4.80;;
52724;SDS011;38621;52.830;6.914;2022-08-19T10:35:26;5.50;;;4.45;;
52724;SDS011;38621;52.830;6.914;2022-08-19T10:37:54;5.38;;;4.70;;
52724;SDS011;38621;52.830;6.914;2022-08-19T10:40:24;5.95;;;4.80;;
52724;SDS011;38621;52.830;6.914;2022-08-19T10:42:51;5.25;;;4.50;;
52724;SDS011;38621;52.830;6.914;2022-08-19T10:45:18;5.22;;;4.28;;
52724;SDS011;38621;52.830;6.914;2022-08-19T10:47:43;5.85;;;4.78;;
52724;SDS011;38621;52.830;6.914;2022-08-19T10:50:09;8.27;;;4.75;;
52724;SDS011;38621;52.830;6.914;2022-08-19T10:52:53;5.97;;;5.38;;
52724;SDS011;38621;52.830;6.914;2022-08-19T10:55:20;7.03;;;4.85;;
52724;SDS011;38621;52.830;6.914;2022-08-19T10:58:11;7.03;;;5.15;;
52724;SDS011;38621;52.830;6.914;2022-08-19T11:00:38;6.70;;;5.80;;
52724;SDS011;38621;52.830;6.914;2022-08-19T11:03:05;6.05;;;5.15;;
52724;SDS011;38621;52.830;6.914;2022-08-19T11:05:31;6.93;;;5.65;;
52724;SDS011;38621;52.830;6.914;2022-08-19T11:07:56;5.43;;;4.55;;
52724;SDS011;38621;52.830;6.914;2022-08-19T11:10:22;6.93;;;5.30;;
52724;SDS011;38621;52.830;6.914;2022-08-19T11:12:49;6.93;;;5.68;;
52724;SDS011;38621;52.830;6.914;2022-08-19T11:15:19;6.53;;;5.40;;
52724;SDS011;38621;52.830;6.914;2022-08-19T11:17:44;6.22;;;5.03;;
52724;SDS011;38621;52.830;6.914;2022-08-19T11:20:11;7.20;;;5.30;;
52724;SDS011;38621;52.830;6.914;2022-08-19T11:22:39;8.70;;;6.05;;
52724;SDS011;38621;52.830;6.914;2022-08-19T11:25:06;5.00;;;4.50;;
52724;SDS011;38621;52.830;6.914;2022-08-19T11:27:33;6.88;;;5.80;;
52724;SDS011;38621;52.830;6.914;2022-08-19T11:30:02;6.25;;;5.20;;
52724;SDS011;38621;52.830;6.914;2022-08-19T11:32:28;5.85;;;5.03;;
52724;SDS011;38621;52.830;6.914;2022-08-19T11:34:54;6.35;;;5.15;;
52724;SDS011;38621;52.830;6.914;2022-08-19T11:37:20;4.97;;;4.43;;
52724;SDS011;38621;52.830;6.914;2022-08-19T11:39:45;4.97;;;4.47;;
52724;SDS011;38621;52.830;6.914;2022-08-19T11:42:11;6.15;;;4.70;;
52724;SDS011;38621;52.830;6.914;2022-08-19T11:44:55;6.25;;;5.20;;
52724;SDS011;38621;52.830;6.914;2022-08-19T11:47:21;5.97;;;5.15;;
52724;SDS011;38621;52.830;6.914;2022-08-19T11:49:47;6.90;;;5.05;;
52724;SDS011;38621;52.830;6.914;2022-08-19T11:52:13;6.70;;;5.70;;
52724;SDS011;38621;52.830;6.914;2022-08-19T11:54:39;5.85;;;4.80;;
52724;SDS011;38621;52.830;6.914;2022-08-19T11:57:05;6.32;;;5.72;;
52724;SDS011;38621;52.830;6.914;2022-08-19T11:59:30;5.28;;;4.75;;
52724;SDS011;38621;52.830;6.914;2022-08-19T12:01:56;5.40;;;4.50;;
52724;SDS011;38621;52.830;6.914;2022-08-19T12:04:22;5.72;;;4.95;;
52724;SDS011;38621;52.830;6.914;2022-08-19T12:06:48;6.47;;;5.25;;
52724;SDS011;38621;52.830;6.914;2022-08-19T12:09:15;5.75;;;5.15;;
52724;SDS011;38621;52.830;6.914;2022-08-19T12:11:42;6.90;;;4.93;;
52724;SDS011;38621;52.830;6.914;2022-08-19T12:14:12;5.97;;;5.38;;
52724;SDS011;38621;52.830;6.914;2022-08-19T12:16:39;5.78;;;4.60;;
52724;SDS011;38621;52.830;6.914;2022-08-19T12:19:06;6.78;;;4.78;;
52724;SDS011;38621;52.830;6.914;2022-08-19T12:21:33;5.18;;;4.68;;
52724;SDS011;38621;52.830;6.914;2022-08-19T12:24:00;5.93;;;4.63;;
52724;SDS011;38621;52.830;6.914;2022-08-19T12:26:28;5.32;;;4.68;;
52724;SDS011;38621;52.830;6.914;2022-08-19T12:28:56;7.65;;;5.20;;
52724;SDS011;38621;52.830;6.914;2022-08-19T12:31:24;6.80;;;5.20;;
52724;SDS011;38621;52.830;6.914;2022-08-19T12:33:51;6.35;;;4.93;;
52724;SDS011;38621;52.830;6.914;2022-08-19T12:36:17;5.70;;;5.05;;
52724;SDS011;38621;52.830;6.914;2022-08-19T12:38:43;6.65;;;5.25;;
52724;SDS011;38621;52.830;6.914;2022-08-19T12:41:10;6.95;;;5.50;;
52724;SDS011;38621;52.830;6.914;2022-08-19T12:43:38;7.15;;;4.72;;
52724;SDS011;38621;52.830;6.914;2022-08-19T12:46:04;5.35;;;4.85;;
52724;SDS011;38621;52.830;6.914;2022-08-19T12:48:31;6.80;;;4.93;;
52724;SDS011;38621;52.830;6.914;2022-08-19T12:50:57;6.80;;;5.03;;
52724;SDS011;38621;52.830;6.914;2022-08-19T12:53:23;5.35;;;4.13;;
52724;SDS011;38621;52.830;6.914;2022-08-19T12:55:56;5.05;;;4.55;;
52724;SDS011;38621;52.830;6.914;2022-08-19T12:58:25;5.30;;;4.13;;
52724;SDS011;38621;52.830;6.914;2022-08-19T13:00:51;5.20;;;4.68;;
52724;SDS011;38621;52.830;6.914;2022-08-19T13:03:17;6.40;;;4.95;;
52724;SDS011;38621;52.830;6.914;2022-08-19T13:05:43;5.43;;;4.53;;
52724;SDS011;38621;52.830;6.914;2022-08-19T13:08:08;5.30;;;4.80;;
52724;SDS011;38621;52.830;6.914;2022-08-19T13:10:34;5.53;;;4.60;;
52724;SDS011;38621;52.830;6.914;2022-08-19T13:13:04;5.70;;;4.28;;
52724;SDS011;38621;52.830;6.914;2022-08-19T13:15:37;5.38;;;4.88;;
52724;SDS011;38621;52.830;6.914;2022-08-19T13:18:05;5.97;;;5.30;;
52724;SDS011;38621;52.830;6.914;2022-08-19T13:20:31;5.30;;;4.70;;
52724;SDS011;38621;52.830;6.914;2022-08-19T13:22:57;5.15;;;4.65;;
52724;SDS011;38621;52.830;6.914;2022-08-19T13:25:23;5.13;;;4.40;;
52724;SDS011;38621;52.830;6.914;2022-08-19T13:27:50;5.03;;;4.53;;
52724;SDS011;38621;52.830;6.914;2022-08-19T13:30:16;5.60;;;4.05;;
52724;SDS011;38621;52.830;6.914;2022-08-19T13:33:02;5.75;;;4.43;;
52724;SDS011;38621;52.830;6.914;2022-08-19T13:35:48;4.68;;;4.20;;
52724;SDS011;38621;52.830;6.914;2022-08-19T13:38:20;4.30;;;3.72;;
52724;SDS011;38621;52.830;6.914;2022-08-19T13:40:47;4.50;;;3.17;;
52724;SDS011;38621;52.830;6.914;2022-08-19T13:43:16;3.92;;;3.53;;
52724;SDS011;38621;52.830;6.914;2022-08-19T13:45:42;3.75;;;3.33;;
52724;SDS011;38621;52.830;6.914;2022-08-19T13:48:08;3.92;;;2.97;;
52724;SDS011;38621;52.830;6.914;2022-08-19T13:50:37;3.95;;;2.75;;
52724;SDS011;38621;52.830;6.914;2022-08-19T13:53:06;3.65;;;2.78;;
52724;SDS011;38621;52.830;6.914;2022-08-19T13:55:34;4.35;;;2.88;;
52724;SDS011;38621;52.830;6.914;2022-08-19T13:58:02;3.80;;;3.40;;
52724;SDS011;38621;52.830;6.914;2022-08-19T14:00:29;4.32;;;3.13;;
52724;SDS011;38621;52.830;6.914;2022-08-19T14:02:57;4.70;;;3.28;;
52724;SDS011;38621;52.830;6.914;2022-08-19T14:05:24;5.30;;;3.10;;
52724;SDS011;38621;52.830;6.914;2022-08-19T14:07:51;4.05;;;3.65;;
52724;SDS011;38621;52.830;6.914;2022-08-19T14:10:17;4.05;;;3.65;;
52724;SDS011;38621;52.830;6.914;2022-08-19T14:12:43;3.70;;;3.10;;
52724;SDS011;38621;52.830;6.914;2022-08-19T14:15:10;3.88;;;3.47;;
52724;SDS011;38621;52.830;6.914;2022-08-19T14:17:43;3.60;;;3.20;;
52724;SDS011;38621;52.830;6.914;2022-08-19T14:20:12;3.50;;;3.20;;
52724;SDS011;38621;52.830;6.914;2022-08-19T14:22:39;4.50;;;3.80;;
52724;SDS011;38621;52.830;6.914;2022-08-19T14:25:09;4.13;;;3.25;;
52724;SDS011;38621;52.830;6.914;2022-08-19T14:27:37;3.90;;;3.50;;
52724;SDS011;38621;52.830;6.914;2022-08-19T14:30:05;5.53;;;3.58;;
52724;SDS011;38621;52.830;6.914;2022-08-19T14:32:33;3.72;;;3.30;;
52724;SDS011;38621;52.830;6.914;2022-08-19T14:35:00;3.60;;;2.97;;
52724;SDS011;38621;52.830;6.914;2022-08-19T14:37:26;4.00;;;3.10;;
52724;SDS011;38621;52.830;6.914;2022-08-19T14:39:52;4.88;;;3.17;;
52724;SDS011;38621;52.830;6.914;2022-08-19T14:42:18;3.75;;;3.30;;
52724;SDS011;38621;52.830;6.914;2022-08-19T14:44:44;3.85;;;3.03;;
52724;SDS011;38621;52.830;6.914;2022-08-19T14:47:10;4.20;;;3.80;;
52724;SDS011;38621;52.830;6.914;2022-08-19T14:49:36;4.05;;;3.25;;
52724;SDS011;38621;52.830;6.914;2022-08-19T14:52:02;3.25;;;2.88;;
52724;SDS011;38621;52.830;6.914;2022-08-19T14:54:29;3.85;;;3.45;;
52724;SDS011;38621;52.830;6.914;2022-08-19T14:56:55;4.03;;;2.67;;
52724;SDS011;38621;52.830;6.914;2022-08-19T14:59:21;2.70;;;2.33;;
52724;SDS011;38621;52.830;6.914;2022-08-19T15:01:46;3.67;;;2.80;;
52724;SDS011;38621;52.830;6.914;2022-08-19T15:04:12;4.85;;;3.45;;
52724;SDS011;38621;52.830;6.914;2022-08-19T15:06:38;4.30;;;3.70;;